createdAt,value
2023-02-23T00:02:06.623Z,100.00
2023-02-23T00:04:37.155Z,100.00
2023-02-23T00:07:04.470Z,100.00
2023-02-23T00:09:35.981Z,100.00
2023-02-23T00:12:08.055Z,100.00
2023-02-23T00:14:35.419Z,100.00
2023-02-23T00:17:02.135Z,100.00
2023-02-23T00:19:28.778Z,100.00
2023-02-23T00:21:58.834Z,100.00
2023-02-23T00:24:27.030Z,100.00
2023-02-23T00:26:53.886Z,100.00
2023-02-23T00:29:23.217Z,100.00
2023-02-23T00:31:51.907Z,100.00
2023-02-23T00:34:23.973Z,100.00
2023-02-23T00:36:55.426Z,100.00
2023-02-23T00:39:23.673Z,100.00
2023-02-23T00:41:52.398Z,100.00
2023-02-23T00:44:21.076Z,100.00
2023-02-23T00:46:51.819Z,100.00
2023-02-23T00:49:20.100Z,100.00
2023-02-23T00:51:47.056Z,100.00
2023-02-23T00:54:14.921Z,100.00
2023-02-23T00:56:42.006Z,100.00
2023-02-23T00:59:09.394Z,100.00
2023-02-23T01:01:37.645Z,100.00
2023-02-23T01:04:05.357Z,100.00
2023-02-23T01:06:32.330Z,100.00
2023-02-23T01:08:59.063Z,100.00
2023-02-23T01:11:31.042Z,100.00
2023-02-23T01:13:59.553Z,100.00
2023-02-23T01:16:30.125Z,100.00
2023-02-23T01:18:59.323Z,100.00
2023-02-23T01:21:33.039Z,100.00
2023-02-23T01:24:00.024Z,100.00
2023-02-23T01:26:34.836Z,100.00
2023-02-23T01:29:23.550Z,100.00
2023-02-23T01:31:53.113Z,100.00
2023-02-23T01:34:21.800Z,100.00
2023-02-23T01:36:48.703Z,100.00
2023-02-23T01:39:19.495Z,100.00
2023-02-23T01:41:46.452Z,100.00
2023-02-23T01:44:13.051Z,100.00
2023-02-23T01:46:47.494Z,100.00
2023-02-23T01:49:20.317Z,100.00
2023-02-23T01:51:52.442Z,100.00
2023-02-23T01:54:22.723Z,100.00
2023-02-23T01:56:58.210Z,100.00
2023-02-23T01:59:43.884Z,100.00
2023-02-23T02:02:11.127Z,100.00
2023-02-23T02:04:46.450Z,100.00
2023-02-23T02:07:25.029Z,100.00
2023-02-23T02:10:17.803Z,100.00
2023-02-23T02:12:56.367Z,100.00
2023-02-23T02:15:29.853Z,100.00
2023-02-23T02:18:38.231Z,100.00
2023-02-23T02:21:42.113Z,100.00
2023-02-23T02:24:08.662Z,100.00
2023-02-23T02:27:02.855Z,100.00
2023-02-23T02:29:56.160Z,100.00
2023-02-23T02:32:54.234Z,100.00
2023-02-23T02:35:58.392Z,100.00
2023-02-23T02:38:51.045Z,100.00
2023-02-23T02:41:20.841Z,100.00
2023-02-23T02:44:09.404Z,100.00
2023-02-23T02:46:40.970Z,100.00
2023-02-23T02:49:30.656Z,100.00
2023-02-23T02:52:19.356Z,100.00
2023-02-23T02:54:53.501Z,100.00
2023-02-23T02:57:25.238Z,100.00
2023-02-23T03:00:11.535Z,100.00
2023-02-23T03:02:58.300Z,100.00
2023-02-23T03:06:00.982Z,100.00
2023-02-23T03:09:26.022Z,100.00
2023-02-23T03:12:46.720Z,100.00
2023-02-23T03:15:47.870Z,100.00
2023-02-23T03:19:02.172Z,100.00
2023-02-23T03:22:00.641Z,100.00
2023-02-23T03:24:58.964Z,100.00
2023-02-23T03:28:05.970Z,100.00
2023-02-23T03:31:20.445Z,100.00
2023-02-23T03:34:18.349Z,100.00
2023-02-23T03:37:10.991Z,100.00
2023-02-23T03:40:01.823Z,100.00
2023-02-23T03:42:52.781Z,100.00
2023-02-23T03:45:40.417Z,100.00
2023-02-23T03:48:29.348Z,100.00
2023-02-23T03:51:20.134Z,100.00
2023-02-23T03:54:24.165Z,100.00
2023-02-23T03:57:12.828Z,100.00
2023-02-23T04:00:05.745Z,100.00
2023-02-23T04:02:54.986Z,100.00
2023-02-23T04:05:42.660Z,100.00
2023-02-23T04:08:32.624Z,100.00
2023-02-23T04:11:30.441Z,100.00
2023-02-23T04:14:01.971Z,100.00
2023-02-23T04:16:30.550Z,100.00
2023-02-23T04:18:58.099Z,100.00
2023-02-23T04:21:24.742Z,100.00
2023-02-23T04:23:51.647Z,100.00
2023-02-23T04:26:18.214Z,100.00
2023-02-23T04:28:44.791Z,100.00
2023-02-23T04:31:14.202Z,100.00
2023-02-23T04:33:40.777Z,100.00
2023-02-23T04:36:07.823Z,100.00
2023-02-23T04:38:34.444Z,100.00
2023-02-23T04:41:01.111Z,100.00
2023-02-23T04:43:27.720Z,100.00
2023-02-23T04:45:54.349Z,100.00
2023-02-23T04:48:21.147Z,100.00
2023-02-23T04:50:47.761Z,100.00
2023-02-23T04:53:14.374Z,100.00
2023-02-23T04:55:40.959Z,100.00
2023-02-23T04:58:13.583Z,100.00
2023-02-23T05:00:41.104Z,100.00
2023-02-23T05:03:07.870Z,100.00
2023-02-23T05:05:34.459Z,100.00
2023-02-23T05:08:01.064Z,100.00
2023-02-23T05:10:27.728Z,100.00
2023-02-23T05:12:54.943Z,100.00
2023-02-23T05:15:21.748Z,100.00
2023-02-23T05:17:48.524Z,100.00
2023-02-23T05:20:15.394Z,100.00
2023-02-23T05:22:42.001Z,100.00
2023-02-23T05:25:10.414Z,100.00
2023-02-23T05:27:37.541Z,100.00
2023-02-23T05:30:07.463Z,100.00
2023-02-23T05:32:34.878Z,100.00
2023-02-23T05:35:02.657Z,100.00
2023-02-23T05:37:29.238Z,100.00
2023-02-23T05:39:55.807Z,100.00
2023-02-23T05:42:22.410Z,100.00
2023-02-23T05:44:49.038Z,100.00
2023-02-23T05:47:15.654Z,100.00
2023-02-23T05:49:42.763Z,100.00
2023-02-23T05:52:09.356Z,100.00
2023-02-23T05:54:35.952Z,100.00
2023-02-23T05:57:02.527Z,100.00
2023-02-23T05:59:29.121Z,100.00
2023-02-23T06:01:55.823Z,100.00
2023-02-23T06:04:23.375Z,100.00
2023-02-23T06:06:50.120Z,98.05
2023-02-23T06:09:16.742Z,90.78
2023-02-23T06:11:44.601Z,86.01
2023-02-23T06:14:11.359Z,80.92
2023-02-23T06:16:38.227Z,78.01
2023-02-23T06:19:05.033Z,76.84
2023-02-23T06:21:31.571Z,76.08
2023-02-23T06:24:00.668Z,73.76
2023-02-23T06:26:27.451Z,73.97
2023-02-23T06:28:54.379Z,72.67
2023-02-23T06:31:21.827Z,71.69
2023-02-23T06:33:48.811Z,70.94
2023-02-23T06:36:15.437Z,71.98
2023-02-23T06:38:42.188Z,72.50
2023-02-23T06:41:10.715Z,70.86
2023-02-23T06:43:37.458Z,75.85
2023-02-23T06:46:04.623Z,73.67
2023-02-23T06:48:31.780Z,71.43
2023-02-23T06:50:59.988Z,74.07
2023-02-23T06:53:26.681Z,73.70
2023-02-23T06:55:53.368Z,76.70
2023-02-23T06:58:19.999Z,78.91
2023-02-23T07:00:46.700Z,77.74
2023-02-23T07:03:13.308Z,82.91
2023-02-23T07:05:40.965Z,85.56
2023-02-23T07:08:07.733Z,82.95
2023-02-23T07:10:35.081Z,77.38
2023-02-23T07:13:01.854Z,74.29
2023-02-23T07:15:28.565Z,75.81
2023-02-23T07:17:55.482Z,77.04
2023-02-23T07:20:22.094Z,71.02
2023-02-23T07:22:48.691Z,71.51
2023-02-23T07:25:15.330Z,74.50
2023-02-23T07:27:42.403Z,71.70
2023-02-23T07:30:10.045Z,68.95
2023-02-23T07:32:36.788Z,66.49
2023-02-23T07:35:04.707Z,65.67
2023-02-23T07:37:31.339Z,66.59
2023-02-23T07:39:59.529Z,67.28
2023-02-23T07:42:27.666Z,66.86
2023-02-23T07:44:54.264Z,68.82
2023-02-23T07:47:21.007Z,70.61
2023-02-23T07:49:47.756Z,71.60
2023-02-23T07:52:18.478Z,74.58
2023-02-23T07:54:45.318Z,73.72
2023-02-23T07:57:12.354Z,75.25
2023-02-23T07:59:39.346Z,76.69
2023-02-23T08:02:05.987Z,74.55
2023-02-23T08:04:32.652Z,73.50
2023-02-23T08:06:59.669Z,72.33
2023-02-23T08:09:26.240Z,71.64
2023-02-23T08:11:52.779Z,72.18
2023-02-23T08:14:23.582Z,68.96
2023-02-23T08:16:51.655Z,67.17
2023-02-23T08:19:18.437Z,66.01
2023-02-23T08:21:45.519Z,64.76
2023-02-23T08:24:12.141Z,65.99
2023-02-23T08:26:38.771Z,64.81
2023-02-23T08:29:05.462Z,65.12
2023-02-23T08:31:33.859Z,65.86
2023-02-23T08:34:01.464Z,63.56
2023-02-23T08:36:28.281Z,62.51
2023-02-23T08:38:54.995Z,62.28
2023-02-23T08:41:22.075Z,61.50
2023-02-23T08:43:48.991Z,61.28
2023-02-23T08:46:18.603Z,60.59
2023-02-23T08:48:45.317Z,59.11
2023-02-23T08:51:11.900Z,59.23
2023-02-23T08:53:38.509Z,59.74
2023-02-23T08:56:07.315Z,60.00
2023-02-23T08:58:35.953Z,58.96
2023-02-23T09:01:04.030Z,56.80
2023-02-23T09:03:33.586Z,56.24
2023-02-23T09:06:10.148Z,54.84
2023-02-23T09:08:36.986Z,55.98
2023-02-23T09:11:03.520Z,54.25
2023-02-23T09:13:30.105Z,52.81
2023-02-23T09:15:56.761Z,52.23
2023-02-23T09:18:24.147Z,52.27
2023-02-23T09:20:51.906Z,51.88
2023-02-23T09:23:19.900Z,50.37
2023-02-23T09:25:46.824Z,50.58
2023-02-23T09:28:16.561Z,50.37
2023-02-23T09:30:44.722Z,50.10
2023-02-23T09:33:12.192Z,50.22
2023-02-23T09:35:39.421Z,49.75
2023-02-23T09:38:07.579Z,49.42
2023-02-23T09:40:46.981Z,48.61
2023-02-23T09:43:22.334Z,48.41
2023-02-23T09:46:04.269Z,48.08
2023-02-23T09:48:31.476Z,47.47
2023-02-23T09:50:59.909Z,46.66
2023-02-23T09:53:42.867Z,46.38
2023-02-23T09:56:35.772Z,46.80
2023-02-23T09:59:05.793Z,45.97
2023-02-23T10:02:10.685Z,45.88
2023-02-23T10:04:40.832Z,45.70
2023-02-23T10:07:18.600Z,44.81
2023-02-23T10:09:54.479Z,45.79
2023-02-23T10:12:29.946Z,45.28
2023-02-23T10:15:12.761Z,45.18
2023-02-23T10:17:50.802Z,44.92
2023-02-23T10:20:28.576Z,44.10
2023-02-23T10:23:01.330Z,44.48
2023-02-23T10:25:32.170Z,43.68
2023-02-23T10:28:01.038Z,42.80
2023-02-23T10:30:30.907Z,42.45
2023-02-23T10:33:25.561Z,42.31
2023-02-23T10:36:12.744Z,41.79
2023-02-23T10:38:40.725Z,40.99
2023-02-23T10:41:09.001Z,40.63
2023-02-23T10:43:35.767Z,40.29
2023-02-23T10:46:02.434Z,39.46
2023-02-23T10:48:43.160Z,40.61
2023-02-23T10:51:26.322Z,40.82
2023-02-23T10:53:53.019Z,39.88
2023-02-23T10:56:21.217Z,39.65
2023-02-23T10:58:58.455Z,39.47
2023-02-23T11:02:01.928Z,39.63
2023-02-23T11:04:31.463Z,40.05
2023-02-23T11:07:16.437Z,39.60
2023-02-23T11:09:47.607Z,39.31
2023-02-23T11:12:21.751Z,39.91
2023-02-23T11:14:53.405Z,39.50
2023-02-23T11:17:37.663Z,40.51
2023-02-23T11:20:28.690Z,40.13
2023-02-23T11:22:58.991Z,40.84
2023-02-23T11:25:32.715Z,40.75
2023-02-23T11:27:59.914Z,40.89
2023-02-23T11:30:38.092Z,40.60
2023-02-23T11:33:12.130Z,40.36
2023-02-23T11:35:39.210Z,40.33
2023-02-23T11:38:26.676Z,39.67
2023-02-23T11:41:05.627Z,39.49
2023-02-23T11:43:33.196Z,39.10
2023-02-23T11:46:02.090Z,38.96
2023-02-23T11:48:33.595Z,38.66
2023-02-23T11:51:01.328Z,38.76
2023-02-23T11:53:44.931Z,39.25
2023-02-23T11:56:12.623Z,39.47
2023-02-23T11:58:51.229Z,38.65
2023-02-23T12:01:44.005Z,39.63
2023-02-23T12:04:23.909Z,40.09
2023-02-23T12:06:51.079Z,39.61
2023-02-23T12:09:23.833Z,39.20
2023-02-23T12:12:01.856Z,38.33
2023-02-23T12:14:41.425Z,38.20
2023-02-23T12:17:23.975Z,37.94
2023-02-23T12:20:01.603Z,37.71
2023-02-23T12:22:53.812Z,37.44
2023-02-23T12:25:46.165Z,37.50
2023-02-23T12:28:32.233Z,37.90
2023-02-23T12:31:06.094Z,38.21
2023-02-23T12:33:39.354Z,38.33
2023-02-23T12:36:39.683Z,38.21
2023-02-23T12:39:30.723Z,38.34
2023-02-23T12:42:22.679Z,38.15
2023-02-23T12:44:58.813Z,38.10
2023-02-23T12:47:49.308Z,38.80
2023-02-23T12:50:24.883Z,38.85
2023-02-23T12:52:57.697Z,38.79
2023-02-23T12:56:06.552Z,38.26
2023-02-23T12:58:51.694Z,38.34
2023-02-23T13:01:33.977Z,38.41
2023-02-23T13:04:26.940Z,37.73
2023-02-23T13:07:05.521Z,37.98
2023-02-23T13:09:48.065Z,38.07
2023-02-23T13:12:42.467Z,37.80
2023-02-23T13:15:46.119Z,37.74
2023-02-23T13:18:34.614Z,38.16
2023-02-23T13:21:27.132Z,38.51
2023-02-23T13:23:56.644Z,38.59
2023-02-23T13:26:34.605Z,39.21
2023-02-23T13:29:01.196Z,38.65
2023-02-23T13:31:40.168Z,38.67
2023-02-23T13:34:24.284Z,38.88
2023-02-23T13:36:51.907Z,38.83
2023-02-23T13:39:37.109Z,39.39
2023-02-23T13:42:28.600Z,39.39
2023-02-23T13:45:14.969Z,39.62
2023-02-23T13:47:53.674Z,39.06
2023-02-23T13:50:30.309Z,39.09
2023-02-23T13:53:02.063Z,39.28
2023-02-23T13:55:40.038Z,39.45
2023-02-23T13:58:17.078Z,38.60
2023-02-23T14:00:50.010Z,39.13
2023-02-23T14:03:27.330Z,39.32
2023-02-23T14:05:59.842Z,39.25
2023-02-23T14:08:38.837Z,39.37
2023-02-23T14:11:06.495Z,39.30
2023-02-23T14:13:39.222Z,39.33
2023-02-23T14:16:24.252Z,39.50
2023-02-23T14:18:50.817Z,39.44
2023-02-23T14:21:26.614Z,39.27
2023-02-23T14:24:14.392Z,40.20
2023-02-23T14:27:08.284Z,43.54
2023-02-23T14:29:44.123Z,45.02
2023-02-23T14:32:10.984Z,46.88
2023-02-23T14:34:59.734Z,47.96
2023-02-23T14:37:55.613Z,48.53
2023-02-23T14:40:32.241Z,48.94
2023-02-23T14:43:02.254Z,49.70
2023-02-23T14:45:37.071Z,49.87
2023-02-23T14:48:17.165Z,50.57
2023-02-23T14:50:44.569Z,51.35
2023-02-23T14:53:24.335Z,52.11
2023-02-23T14:55:50.951Z,52.69
2023-02-23T14:58:35.291Z,53.06
2023-02-23T15:01:01.986Z,53.74
2023-02-23T15:03:28.747Z,53.87
2023-02-23T15:05:58.886Z,54.81
2023-02-23T15:08:28.118Z,55.30
2023-02-23T15:11:05.597Z,55.42
2023-02-23T15:13:40.449Z,56.10
2023-02-23T15:16:12.771Z,55.43
2023-02-23T15:18:42.313Z,54.39
2023-02-23T15:21:12.884Z,53.55
2023-02-23T15:23:39.985Z,52.25
2023-02-23T15:26:26.379Z,52.12
2023-02-23T15:28:53.653Z,52.39
2023-02-23T15:31:20.579Z,52.27
2023-02-23T15:33:50.850Z,52.36
2023-02-23T15:36:31.433Z,53.13
2023-02-23T15:39:01.087Z,53.33
2023-02-23T15:41:38.433Z,53.77
2023-02-23T15:44:14.549Z,53.96
2023-02-23T15:46:44.198Z,54.55
2023-02-23T15:49:14.367Z,55.06
2023-02-23T15:51:48.604Z,55.92
2023-02-23T15:54:29.754Z,56.55
2023-02-23T15:57:02.114Z,57.78
2023-02-23T15:59:34.732Z,58.62
2023-02-23T16:02:03.080Z,59.20
2023-02-23T16:04:33.818Z,60.17
2023-02-23T16:07:14.811Z,61.10
2023-02-23T16:09:50.302Z,62.17
2023-02-23T16:12:23.768Z,62.92
2023-02-23T16:15:27.116Z,63.87
2023-02-23T16:17:57.854Z,64.86
2023-02-23T16:20:35.587Z,65.84
2023-02-23T16:23:03.278Z,66.74
2023-02-23T16:25:31.190Z,67.59
2023-02-23T16:28:03.273Z,68.68
2023-02-23T16:30:32.948Z,69.45
2023-02-23T16:33:07.769Z,70.51
2023-02-23T16:35:46.527Z,71.80
2023-02-23T16:38:35.430Z,72.57
2023-02-23T16:41:11.249Z,73.59
2023-02-23T16:43:37.871Z,75.01
2023-02-23T16:46:04.599Z,75.61
2023-02-23T16:48:31.246Z,76.32
2023-02-23T16:50:57.878Z,77.50
2023-02-23T16:53:25.346Z,78.66
2023-02-23T16:56:01.019Z,79.76
2023-02-23T16:58:30.528Z,81.08
2023-02-23T17:00:57.213Z,81.86
2023-02-23T17:03:30.422Z,82.84
2023-02-23T17:05:57.280Z,83.76
2023-02-23T17:08:24.699Z,84.72
2023-02-23T17:10:57.376Z,86.04
2023-02-23T17:13:26.104Z,87.64
2023-02-23T17:15:56.311Z,89.53
2023-02-23T17:20:59.464Z,91.77
2023-02-23T17:23:28.544Z,93.04
2023-02-23T17:25:58.783Z,94.26
2023-02-23T17:28:25.935Z,96.76
2023-02-23T17:30:52.605Z,98.18
2023-02-23T17:33:19.633Z,99.04
2023-02-23T17:35:46.913Z,100.00
2023-02-23T17:38:14.968Z,100.00
2023-02-23T17:40:41.648Z,100.00
2023-02-23T17:43:08.653Z,100.00
2023-02-23T17:45:35.446Z,100.00
2023-02-23T17:48:02.020Z,100.00
2023-02-23T17:50:29.110Z,100.00
2023-02-23T17:52:56.468Z,100.00
2023-02-23T17:55:24.126Z,100.00
2023-02-23T17:57:50.808Z,100.00
2023-02-23T18:00:19.050Z,100.00
2023-02-23T18:02:46.726Z,100.00
2023-02-23T18:05:14.621Z,100.00
2023-02-23T18:07:42.019Z,100.00
2023-02-23T18:10:09.505Z,100.00
2023-02-23T18:12:36.100Z,100.00
2023-02-23T18:15:02.897Z,100.00
2023-02-23T18:17:32.557Z,100.00
2023-02-23T18:20:00.420Z,100.00
2023-02-23T18:22:27.131Z,100.00
2023-02-23T18:24:53.738Z,100.00
2023-02-23T18:27:20.390Z,100.00
2023-02-23T18:29:46.998Z,100.00
2023-02-23T18:32:13.754Z,100.00
2023-02-23T18:34:40.591Z,100.00
2023-02-23T18:37:10.201Z,100.00
2023-02-23T18:39:37.209Z,100.00
2023-02-23T18:42:04.550Z,100.00
2023-02-23T18:44:33.442Z,100.00
2023-02-23T18:47:01.394Z,100.00
2023-02-23T18:49:28.055Z,100.00
2023-02-23T18:51:54.795Z,100.00
2023-02-23T18:54:22.458Z,100.00
2023-02-23T18:56:49.328Z,100.00
2023-02-23T18:59:16.198Z,100.00
2023-02-23T19:01:45.454Z,100.00
2023-02-23T19:04:12.829Z,100.00
2023-02-23T19:06:42.924Z,100.00
2023-02-23T19:09:12.614Z,100.00
2023-02-23T19:11:41.428Z,100.00
2023-02-23T19:14:12.122Z,100.00
2023-02-23T19:16:41.200Z,100.00
2023-02-23T19:19:08.417Z,100.00
2023-02-23T19:21:36.022Z,100.00
2023-02-23T19:24:03.477Z,100.00
2023-02-23T19:26:31.720Z,100.00
2023-02-23T19:28:58.791Z,100.00
2023-02-23T19:31:26.550Z,100.00
2023-02-23T19:33:56.001Z,100.00
2023-02-23T19:36:29.607Z,100.00
2023-02-23T19:39:06.262Z,100.00
2023-02-23T19:41:33.970Z,100.00
2023-02-23T19:44:01.113Z,100.00
2023-02-23T19:46:28.066Z,100.00
2023-02-23T19:48:54.864Z,100.00
2023-02-23T19:51:22.450Z,100.00
2023-02-23T19:53:49.607Z,100.00
2023-02-23T19:56:17.179Z,100.00
2023-02-23T19:58:46.684Z,100.00
2023-02-23T20:01:16.926Z,100.00
2023-02-23T20:03:45.900Z,100.00
2023-02-23T20:06:14.583Z,100.00
2023-02-23T20:08:42.475Z,100.00
2023-02-23T20:11:09.466Z,100.00
2023-02-23T20:13:38.589Z,100.00
2023-02-23T20:16:09.052Z,100.00
2023-02-23T20:18:38.572Z,100.00
2023-02-23T20:21:24.427Z,100.00
2023-02-23T20:23:51.511Z,100.00
2023-02-23T20:26:21.913Z,100.00
2023-02-23T20:28:50.141Z,100.00
2023-02-23T20:31:23.276Z,100.00
2023-02-23T20:33:50.405Z,100.00
2023-02-23T20:36:18.735Z,100.00
2023-02-23T20:38:45.478Z,100.00
2023-02-23T20:41:12.209Z,100.00
2023-02-23T20:43:39.167Z,100.00
2023-02-23T20:46:06.662Z,100.00
2023-02-23T20:48:34.872Z,100.00
2023-02-23T20:51:02.901Z,100.00
2023-02-23T20:53:30.259Z,100.00
2023-02-23T20:55:56.989Z,100.00
2023-02-23T20:58:26.282Z,100.00
2023-02-23T21:00:57.237Z,100.00
2023-02-23T21:03:25.374Z,100.00
2023-02-23T21:05:53.017Z,100.00
2023-02-23T21:08:20.715Z,100.00
2023-02-23T21:10:48.798Z,100.00
2023-02-23T21:13:16.591Z,100.00
2023-02-23T21:15:44.428Z,100.00
2023-02-23T21:18:11.848Z,100.00
2023-02-23T21:20:39.766Z,100.00
2023-02-23T21:23:06.826Z,100.00
2023-02-23T21:25:33.596Z,100.00
2023-02-23T21:28:01.988Z,100.00
2023-02-23T21:30:29.045Z,100.00
2023-02-23T21:32:57.464Z,100.00
2023-02-23T21:35:24.542Z,100.00
2023-02-23T21:37:52.162Z,100.00
2023-02-23T21:40:23.379Z,100.00
2023-02-23T21:42:50.949Z,100.00
2023-02-23T21:45:18.249Z,100.00
2023-02-23T21:47:46.276Z,100.00
2023-02-23T21:50:16.891Z,100.00
2023-02-23T21:52:45.354Z,100.00
2023-02-23T21:55:21.177Z,100.00
2023-02-23T21:57:48.488Z,100.00
2023-02-23T22:00:16.440Z,100.00
2023-02-23T22:02:46.738Z,100.00
2023-02-23T22:05:14.911Z,100.00
2023-02-23T22:07:41.682Z,100.00
2023-02-23T22:10:08.887Z,100.00
2023-02-23T22:12:35.496Z,100.00
2023-02-23T22:15:07.186Z,100.00
2023-02-23T22:17:33.913Z,100.00
2023-02-23T22:20:00.618Z,100.00
2023-02-23T22:22:27.574Z,100.00
2023-02-23T22:24:54.171Z,100.00
2023-02-23T22:27:22.184Z,100.00
2023-02-23T22:29:48.895Z,100.00
2023-02-23T22:32:17.640Z,100.00
2023-02-23T22:34:44.427Z,100.00
2023-02-23T22:37:11.080Z,100.00
2023-02-23T22:39:41.714Z,100.00
2023-02-23T22:42:12.583Z,100.00
2023-02-23T22:44:39.329Z,100.00
2023-02-23T22:47:06.840Z,100.00
2023-02-23T22:49:34.723Z,100.00
2023-02-23T22:52:01.412Z,100.00
2023-02-23T22:54:28.092Z,100.00
2023-02-23T22:56:54.949Z,100.00
2023-02-23T22:59:21.521Z,100.00
2023-02-23T23:01:50.185Z,100.00
2023-02-23T23:04:17.276Z,100.00
2023-02-23T23:06:44.249Z,100.00
2023-02-23T23:09:12.173Z,100.00
2023-02-23T23:11:42.477Z,100.00
2023-02-23T23:14:10.596Z,100.00
2023-02-23T23:16:47.614Z,100.00
2023-02-23T23:19:17.565Z,100.00
2023-02-23T23:21:46.072Z,100.00
2023-02-23T23:24:13.519Z,100.00
2023-02-23T23:26:41.327Z,100.00
2023-02-23T23:29:11.380Z,100.00
2023-02-23T23:31:39.738Z,100.00
2023-02-23T23:34:10.220Z,100.00
2023-02-23T23:36:45.951Z,100.00
2023-02-23T23:39:15.305Z,100.00
2023-02-23T23:41:48.726Z,100.00
2023-02-23T23:44:21.586Z,100.00
2023-02-23T23:46:50.864Z,100.00
2023-02-23T23:49:19.917Z,100.00
2023-02-23T23:51:50.279Z,100.00
2023-02-23T23:54:31.327Z,100.00
2023-02-23T23:57:01.455Z,100.00
2023-02-23T23:59:28.498Z,100.00
